createdAt,value
2022-10-09T00:03:29.909Z,101474.78
2022-10-09T00:08:26.817Z,101473.88
2022-10-09T00:13:23.389Z,101463.84
2022-10-09T00:18:22.188Z,101470.78
2022-10-09T00:23:19.859Z,101465.72
2022-10-09T00:28:16.839Z,101472.50
2022-10-09T00:33:13.577Z,101470.13
2022-10-09T00:38:10.438Z,101469.50
2022-10-09T00:43:13.232Z,101466.53
2022-10-09T00:48:11.260Z,101463.97
2022-10-09T00:53:10.117Z,101466.38
2022-10-09T00:58:08.331Z,101457.47
2022-10-09T01:03:04.977Z,101461.78
2022-10-09T01:08:05.277Z,101459.66
2022-10-09T01:13:06.326Z,101463.38
2022-10-09T01:18:06.814Z,101470.19
2022-10-09T01:23:15.591Z,101481.56
2022-10-09T01:28:14.574Z,101473.88
2022-10-09T01:33:11.304Z,101466.97
2022-10-09T01:38:08.108Z,101461.44
2022-10-09T01:43:05.375Z,101466.09
2022-10-09T01:48:02.661Z,101470.25
2022-10-09T01:53:01.069Z,101465.84
2022-10-09T01:58:01.393Z,101467.50
2022-10-09T02:02:58.361Z,101468.41
2022-10-09T02:07:56.585Z,101445.38
2022-10-09T02:12:54.951Z,101461.97
2022-10-09T02:17:52.997Z,101451.59
2022-10-09T02:22:51.405Z,101460.38
2022-10-09T02:27:48.735Z,101466.84
2022-10-09T02:32:45.873Z,101469.44
2022-10-09T02:37:42.694Z,101468.00
2022-10-09T02:42:39.339Z,101468.84
2022-10-09T02:47:36.731Z,101470.72
2022-10-09T02:52:33.388Z,101460.81
2022-10-09T02:57:30.008Z,101480.81
2022-10-09T03:02:26.655Z,101471.75
2022-10-09T03:07:24.344Z,101473.78
2022-10-09T03:12:21.590Z,101474.66
2022-10-09T03:17:18.141Z,101476.16
2022-10-09T03:22:14.615Z,101473.94
2022-10-09T03:27:11.959Z,101469.19
2022-10-09T03:32:08.556Z,101468.84
2022-10-09T03:37:05.161Z,101476.06
2022-10-09T03:42:01.778Z,101471.84
2022-10-09T03:46:59.012Z,101479.31
2022-10-09T03:51:55.584Z,101481.28
2022-10-09T03:56:52.156Z,101476.19
2022-10-09T04:01:48.848Z,101474.97
2022-10-09T04:06:46.090Z,101478.50
2022-10-09T04:11:42.635Z,101479.19
2022-10-09T04:16:39.227Z,101483.53
2022-10-09T04:21:35.805Z,101490.19
2022-10-09T04:26:33.131Z,101490.91
2022-10-09T04:31:29.731Z,101483.78
2022-10-09T04:36:26.334Z,101490.97
2022-10-09T04:41:22.965Z,101493.50
2022-10-09T04:46:20.109Z,101494.78
2022-10-09T04:51:18.808Z,101505.63
2022-10-09T04:56:16.949Z,101505.03
2022-10-09T05:01:14.686Z,101512.56
2022-10-09T05:06:12.755Z,101520.25
2022-10-09T05:11:10.644Z,101526.28
2022-10-09T05:16:08.227Z,101529.19
2022-10-09T05:21:05.030Z,101541.66
2022-10-09T05:26:03.380Z,101532.69
2022-10-09T05:31:00.102Z,101540.91
2022-10-09T05:35:57.501Z,101548.19
2022-10-09T05:40:54.673Z,101548.94
2022-10-09T05:45:58.359Z,101557.13
2022-10-09T05:51:05.194Z,101567.56
2022-10-09T05:56:09.424Z,101567.03
2022-10-09T06:01:08.287Z,101568.88
2022-10-09T06:06:06.117Z,101582.09
2022-10-09T06:11:12.915Z,101582.16
2022-10-09T06:16:12.132Z,101594.97
2022-10-09T06:21:08.913Z,101598.72
2022-10-09T06:26:06.141Z,101596.38
2022-10-09T06:31:03.159Z,101603.41
2022-10-09T06:36:09.518Z,101614.63
2022-10-09T06:41:08.504Z,101611.94
2022-10-09T06:46:05.908Z,101613.69
2022-10-09T06:51:03.921Z,101623.13
2022-10-09T06:56:01.192Z,101605.00
2022-10-09T07:01:07.931Z,101608.56
2022-10-09T07:06:09.679Z,101617.44
2022-10-09T07:11:10.271Z,101617.31
2022-10-09T07:16:07.133Z,101608.78
2022-10-09T07:21:04.599Z,101624.22
2022-10-09T07:26:02.239Z,101619.31
2022-10-09T07:31:02.189Z,101609.19
2022-10-09T07:36:00.095Z,101624.38
2022-10-09T07:41:00.688Z,101610.41
2022-10-09T07:46:01.378Z,101625.88
2022-10-09T07:50:58.198Z,101632.00
2022-10-09T07:55:54.844Z,101629.56
2022-10-09T08:00:53.916Z,101625.13
2022-10-09T08:05:54.484Z,101624.66
2022-10-09T08:10:51.168Z,101622.84
2022-10-09T08:15:47.789Z,101617.53
2022-10-09T08:20:44.456Z,101621.66
2022-10-09T08:25:42.477Z,101610.31
2022-10-09T08:30:39.113Z,101622.84
2022-10-09T08:35:35.936Z,101615.13
2022-10-09T08:40:37.769Z,101614.47
2022-10-09T08:45:35.581Z,101608.13
2022-10-09T08:50:33.251Z,101602.13
2022-10-09T08:55:32.830Z,101601.13
2022-10-09T09:00:34.819Z,101604.28
2022-10-09T09:05:39.418Z,101609.06
2022-10-09T09:10:40.519Z,101610.56
2022-10-09T09:15:44.207Z,101608.66
2022-10-09T09:20:47.656Z,101601.56
2022-10-09T09:25:45.434Z,101596.88
2022-10-09T09:30:44.275Z,101594.38
2022-10-09T09:35:46.548Z,101586.38
2022-10-09T09:40:47.055Z,101586.94
2022-10-09T09:45:47.454Z,101594.47
2022-10-09T09:50:56.329Z,101586.59
2022-10-09T09:56:02.158Z,101580.56
2022-10-09T10:01:00.928Z,101573.38
2022-10-09T10:06:01.108Z,101581.63
2022-10-09T10:10:58.712Z,101573.69
2022-10-09T10:15:57.646Z,101571.91
2022-10-09T10:20:55.366Z,101563.38
2022-10-09T10:25:56.803Z,101569.09
2022-10-09T10:30:56.955Z,101567.69
2022-10-09T10:35:55.169Z,101560.44
2022-10-09T10:40:53.847Z,101560.56
2022-10-09T10:45:56.279Z,101550.81
2022-10-09T10:50:58.720Z,101544.19
2022-10-09T10:55:58.413Z,101532.88
2022-10-09T11:01:07.574Z,101535.00
2022-10-09T11:06:09.580Z,101523.44
2022-10-09T11:11:09.552Z,101529.75
2022-10-09T11:16:16.227Z,101522.16
2022-10-09T11:21:27.186Z,101525.50
2022-10-09T11:26:29.054Z,101515.44
2022-10-09T11:31:34.196Z,101511.88
2022-10-09T11:36:38.888Z,101507.16
2022-10-09T11:41:36.180Z,101504.50
2022-10-09T11:46:40.688Z,101511.41
2022-10-09T11:51:44.542Z,101500.28
2022-10-09T11:56:52.092Z,101504.78
2022-10-09T12:01:48.770Z,101506.50
2022-10-09T12:06:47.475Z,101509.16
2022-10-09T12:11:53.761Z,101502.53
2022-10-09T12:16:50.659Z,101503.91
2022-10-09T12:21:52.000Z,101504.50
2022-10-09T12:26:50.060Z,101484.03
2022-10-09T12:31:53.841Z,101497.25
2022-10-09T12:36:52.907Z,101499.06
2022-10-09T12:41:52.832Z,101479.16
2022-10-09T12:47:01.350Z,101494.34
2022-10-09T12:51:59.414Z,101493.75
2022-10-09T12:57:02.007Z,101491.22
2022-10-09T13:02:00.542Z,101487.94
2022-10-09T13:07:22.498Z,101493.44
2022-10-09T13:12:21.878Z,101491.72
2022-10-09T13:17:25.193Z,101489.25
2022-10-09T13:22:33.691Z,101495.34
2022-10-09T13:27:43.063Z,101486.88
2022-10-09T13:32:41.785Z,101487.75
2022-10-09T13:37:43.230Z,101475.16
2022-10-09T13:42:46.304Z,101504.63
2022-10-09T13:47:45.360Z,101501.84
2022-10-09T13:52:42.185Z,101490.97
2022-10-09T13:57:40.620Z,101497.59
2022-10-09T14:02:38.191Z,101500.59
2022-10-09T14:07:35.318Z,101500.81
2022-10-09T14:12:32.019Z,101496.41
2022-10-09T14:17:28.768Z,101503.84
2022-10-09T14:22:26.163Z,101508.22
2022-10-09T14:27:23.076Z,101509.19
2022-10-09T14:32:20.172Z,101515.63
2022-10-09T14:37:29.609Z,101510.47
2022-10-09T14:42:36.214Z,101510.38
2022-10-09T14:47:33.687Z,101513.69
2022-10-09T14:52:30.438Z,101523.66
2022-10-09T14:57:35.190Z,101530.94
2022-10-09T15:02:33.659Z,101519.25
2022-10-09T15:07:33.245Z,101530.19
2022-10-09T15:12:30.119Z,101537.56
2022-10-09T15:17:27.015Z,101538.78
2022-10-09T15:22:27.451Z,101545.41
2022-10-09T15:27:32.926Z,101551.63
2022-10-09T15:32:35.863Z,101555.72
2022-10-09T15:37:33.299Z,101546.53
2022-10-09T15:42:30.759Z,101561.38
2022-10-09T15:47:49.834Z,101565.38
2022-10-09T15:52:48.509Z,101571.88
2022-10-09T15:57:45.640Z,101572.75
2022-10-09T16:02:47.453Z,101584.47
2022-10-09T16:07:45.498Z,101586.31
2022-10-09T16:12:43.861Z,101592.94
2022-10-09T16:17:42.868Z,101604.66
2022-10-09T16:22:39.571Z,101605.97
2022-10-09T16:27:36.494Z,101614.94
2022-10-09T16:32:34.485Z,101616.41
2022-10-09T16:37:31.280Z,101617.50
2022-10-09T16:42:28.092Z,101625.91
2022-10-09T16:47:26.343Z,101639.94
2022-10-09T16:52:23.822Z,101647.38
2022-10-09T16:57:20.581Z,101655.16
2022-10-09T17:02:19.996Z,101657.44
2022-10-09T17:07:18.924Z,101658.19
2022-10-09T17:12:19.730Z,101660.78
2022-10-09T17:17:16.800Z,101662.03
2022-10-09T17:22:13.572Z,101658.72
2022-10-09T17:27:10.316Z,101674.41
2022-10-09T17:32:08.810Z,101675.22
2022-10-09T17:37:05.584Z,101678.13
2022-10-09T17:42:02.271Z,101679.28
2022-10-09T17:47:00.257Z,101689.97
2022-10-09T17:51:57.693Z,101692.88
2022-10-09T17:56:59.702Z,101697.16
2022-10-09T18:01:56.773Z,101693.69
2022-10-09T18:06:53.576Z,101695.31
2022-10-09T18:11:51.321Z,101700.59
2022-10-09T18:16:48.106Z,101707.13
2022-10-09T18:21:47.513Z,101705.03
2022-10-09T18:26:46.972Z,101720.22
2022-10-09T18:31:44.623Z,101727.84
2022-10-09T18:36:41.471Z,101741.81
2022-10-09T18:41:40.620Z,101759.38
2022-10-09T18:46:39.667Z,101761.47
2022-10-09T18:51:38.189Z,101762.72
2022-10-09T18:56:36.088Z,101775.13
2022-10-09T19:01:36.663Z,101779.06
2022-10-09T19:06:35.159Z,101784.50
2022-10-09T19:11:33.895Z,101780.66
2022-10-09T19:16:31.903Z,101782.34
2022-10-09T19:21:28.639Z,101784.06
2022-10-09T19:26:25.311Z,101782.50
2022-10-09T19:31:27.277Z,101786.56
2022-10-09T19:36:26.080Z,101790.84
2022-10-09T19:41:22.651Z,101788.31
2022-10-09T19:46:20.205Z,101790.06
2022-10-09T19:51:18.732Z,101793.91
2022-10-09T19:56:16.375Z,101793.22
2022-10-09T20:01:13.987Z,101795.81
2022-10-09T20:06:10.714Z,101806.31
2022-10-09T20:11:10.969Z,101805.63
2022-10-09T20:16:13.268Z,101802.41
2022-10-09T20:21:10.810Z,101808.94
2022-10-09T20:26:12.480Z,101808.88
2022-10-09T20:31:18.968Z,101837.00
2022-10-09T20:36:26.713Z,101836.59
2022-10-09T20:41:27.148Z,101836.41
2022-10-09T20:46:24.801Z,101844.34
2022-10-09T20:51:22.144Z,101851.78
2022-10-09T20:56:18.848Z,101865.63
2022-10-09T21:01:16.656Z,101874.06
2022-10-09T21:06:14.965Z,101870.19
2022-10-09T21:11:13.109Z,101886.81
2022-10-09T21:16:10.807Z,101897.78
2022-10-09T21:21:09.318Z,101908.13
2022-10-09T21:26:10.449Z,101901.66
2022-10-09T21:31:08.222Z,101904.91
2022-10-09T21:36:09.629Z,101909.81
2022-10-09T21:41:06.354Z,101920.69
2022-10-09T21:46:03.107Z,101927.03
2022-10-09T21:50:59.675Z,101929.97
2022-10-09T21:55:57.030Z,101933.97
2022-10-09T22:00:56.752Z,101930.00
2022-10-09T22:05:53.838Z,101938.19
2022-10-09T22:10:50.779Z,101942.38
2022-10-09T22:15:51.119Z,101941.47
2022-10-09T22:20:49.008Z,101955.97
2022-10-09T22:25:55.072Z,101953.44
2022-10-09T22:31:00.848Z,101953.31
2022-10-09T22:36:02.162Z,101960.16
2022-10-09T22:41:02.413Z,101957.06
2022-10-09T22:46:00.345Z,101962.94
2022-10-09T22:50:57.666Z,101971.13
2022-10-09T22:55:54.144Z,101977.47
2022-10-09T23:00:50.732Z,101969.91
2022-10-09T23:05:47.201Z,101984.59
2022-10-09T23:10:44.416Z,101988.50
2022-10-09T23:15:40.917Z,101995.53
2022-10-09T23:20:37.422Z,102000.38
2022-10-09T23:25:34.114Z,102004.59
2022-10-09T23:30:31.442Z,102009.06
2022-10-09T23:35:28.004Z,102009.88
2022-10-09T23:40:26.487Z,101998.16
2022-10-09T23:45:23.071Z,102024.81
2022-10-09T23:50:20.469Z,102025.81
2022-10-09T23:55:17.217Z,102033.50
